sensor_id;sensor_type;location;lat;lon;timestamp;pressure;altitude;pressure_sealevel;temperature;humidity
58385;BME280;44185;47.844;8.966;2023-04-08T00:00:12;96363.88;;;5.08;100.00
58385;BME280;44185;47.844;8.966;2023-04-08T00:02:37;96359.66;;;5.06;100.00
58385;BME280;44185;47.844;8.966;2023-04-08T00:05:03;96363.78;;;5.10;100.00
58385;BME280;44185;47.844;8.966;2023-04-08T00:07:30;96359.47;;;5.09;100.00
58385;BME280;44185;47.844;8.966;2023-04-08T00:09:55;96364.72;;;5.09;100.00
58385;BME280;44185;47.844;8.966;2023-04-08T00:12:21;96362.59;;;5.01;100.00
58385;BME280;44185;47.844;8.966;2023-04-08T00:14:46;96367.44;;;5.07;100.00
58385;BME280;44185;47.844;8.966;2023-04-08T00:17:12;96374.66;;;5.04;100.00
58385;BME280;44185;47.844;8.966;2023-04-08T00:19:37;96370.25;;;5.04;100.00
58385;BME280;44185;47.844;8.966;2023-04-08T00:22:03;96373.72;;;5.05;100.00
58385;BME280;44185;47.844;8.966;2023-04-08T00:24:30;96371.00;;;5.06;100.00
58385;BME280;44185;47.844;8.966;2023-04-08T00:26:55;96373.16;;;5.14;100.00
58385;BME280;44185;47.844;8.966;2023-04-08T00:29:21;96371.31;;;5.02;100.00
58385;BME280;44185;47.844;8.966;2023-04-08T00:31:46;96378.22;;;5.03;100.00
58385;BME280;44185;47.844;8.966;2023-04-08T00:34:12;96371.94;;;5.05;100.00
58385;BME280;44185;47.844;8.966;2023-04-08T00:36:37;96370.25;;;5.04;100.00
58385;BME280;44185;47.844;8.966;2023-04-08T00:39:03;96364.06;;;5.05;100.00
58385;BME280;44185;47.844;8.966;2023-04-08T00:41:32;96367.25;;;5.10;100.00
58385;BME280;44185;47.844;8.966;2023-04-08T00:43:58;96364.63;;;5.10;100.00
58385;BME280;44185;47.844;8.966;2023-04-08T00:46:23;96364.81;;;5.07;100.00
58385;BME280;44185;47.844;8.966;2023-04-08T00:48:49;96371.00;;;5.06;100.00
58385;BME280;44185;47.844;8.966;2023-04-08T00:51:14;96366.06;;;5.02;100.00
58385;BME280;44185;47.844;8.966;2023-04-08T00:53:40;96364.53;;;4.97;100.00
58385;BME280;44185;47.844;8.966;2023-04-08T00:56:05;96375.31;;;4.93;100.00
58385;BME280;44185;47.844;8.966;2023-04-08T00:58:32;96368.38;;;4.92;100.00
58385;BME280;44185;47.844;8.966;2023-04-08T01:01:02;96377.84;;;4.94;100.00
58385;BME280;44185;47.844;8.966;2023-04-08T01:03:41;96373.25;;;4.98;100.00
58385;BME280;44185;47.844;8.966;2023-04-08T01:06:16;96368.94;;;4.97;100.00
58385;BME280;44185;47.844;8.966;2023-04-08T01:08:46;96364.81;;;4.93;100.00
58385;BME280;44185;47.844;8.966;2023-04-08T01:11:14;96367.53;;;4.91;100.00
58385;BME280;44185;47.844;8.966;2023-04-08T01:13:41;96366.31;;;4.97;100.00
58385;BME280;44185;47.844;8.966;2023-04-08T01:16:09;96362.47;;;5.03;100.00
58385;BME280;44185;47.844;8.966;2023-04-08T01:18:36;96362.47;;;5.03;100.00
58385;BME280;44185;47.844;8.966;2023-04-08T01:21:03;96360.81;;;5.02;100.00
58385;BME280;44185;47.844;8.966;2023-04-08T01:23:38;96358.44;;;4.97;100.00
58385;BME280;44185;47.844;8.966;2023-04-08T01:26:20;96356.00;;;4.94;100.00
58385;BME280;44185;47.844;8.966;2023-04-08T01:28:48;96357.59;;;4.96;100.00
58385;BME280;44185;47.844;8.966;2023-04-08T01:31:15;96346.28;;;4.96;100.00
58385;BME280;44185;47.844;8.966;2023-04-08T01:33:41;96357.41;;;4.99;100.00
58385;BME280;44185;47.844;8.966;2023-04-08T01:36:09;96354.53;;;4.89;100.00
58385;BME280;44185;47.844;8.966;2023-04-08T01:38:35;96353.84;;;4.86;100.00
58385;BME280;44185;47.844;8.966;2023-04-08T01:41:01;96355.38;;;4.90;100.00
58385;BME280;44185;47.844;8.966;2023-04-08T01:43:29;96357.44;;;4.85;100.00
58385;BME280;44185;47.844;8.966;2023-04-08T01:45:55;96360.59;;;4.75;100.00
58385;BME280;44185;47.844;8.966;2023-04-08T01:48:22;96359.94;;;4.72;100.00
58385;BME280;44185;47.844;8.966;2023-04-08T01:50:48;96358.44;;;4.67;100.00
58385;BME280;44185;47.844;8.966;2023-04-08T01:53:14;96358.72;;;4.63;100.00
58385;BME280;44185;47.844;8.966;2023-04-08T01:55:42;96366.13;;;4.56;100.00
58385;BME280;44185;47.844;8.966;2023-04-08T01:58:10;96363.22;;;4.61;100.00
58385;BME280;44185;47.844;8.966;2023-04-08T02:00:39;96365.66;;;4.64;100.00
58385;BME280;44185;47.844;8.966;2023-04-08T02:03:05;96365.84;;;4.61;100.00
58385;BME280;44185;47.844;8.966;2023-04-08T02:05:31;96360.88;;;4.56;100.00
58385;BME280;44185;47.844;8.966;2023-04-08T02:07:56;96364.41;;;4.55;100.00
58385;BME280;44185;47.844;8.966;2023-04-08T02:10:21;96367.72;;;4.59;100.00
58385;BME280;44185;47.844;8.966;2023-04-08T02:12:47;96368.06;;;4.52;100.00
58385;BME280;44185;47.844;8.966;2023-04-08T02:15:13;96366.75;;;4.45;100.00
58385;BME280;44185;47.844;8.966;2023-04-08T02:17:43;96371.25;;;4.43;100.00
58385;BME280;44185;47.844;8.966;2023-04-08T02:20:10;96376.50;;;4.43;100.00
58385;BME280;44185;47.844;8.966;2023-04-08T02:22:42;96368.31;;;4.33;100.00
58385;BME280;44185;47.844;8.966;2023-04-08T02:25:10;96371.31;;;4.27;100.00
58385;BME280;44185;47.844;8.966;2023-04-08T02:27:38;96373.75;;;4.30;100.00
58385;BME280;44185;47.844;8.966;2023-04-08T02:30:06;96376.13;;;4.18;100.00
58385;BME280;44185;47.844;8.966;2023-04-08T02:32:32;96377.47;;;4.26;100.00
58385;BME280;44185;47.844;8.966;2023-04-08T02:35:00;96380.75;;;4.29;100.00
58385;BME280;44185;47.844;8.966;2023-04-08T02:37:27;96372.81;;;4.31;100.00
58385;BME280;44185;47.844;8.966;2023-04-08T02:39:53;96372.63;;;4.34;100.00
58385;BME280;44185;47.844;8.966;2023-04-08T02:42:18;96371.94;;;4.30;100.00
58385;BME280;44185;47.844;8.966;2023-04-08T02:44:43;96375.59;;;4.28;100.00
58385;BME280;44185;47.844;8.966;2023-04-08T02:47:09;96373.06;;;4.26;100.00
58385;BME280;44185;47.844;8.966;2023-04-08T02:49:34;96382.63;;;4.27;100.00
58385;BME280;44185;47.844;8.966;2023-04-08T02:52:01;96382.88;;;4.22;100.00
58385;BME280;44185;47.844;8.966;2023-04-08T02:54:27;96382.13;;;4.20;100.00
58385;BME280;44185;47.844;8.966;2023-04-08T02:56:52;96379.59;;;4.19;100.00
58385;BME280;44185;47.844;8.966;2023-04-08T02:59:17;96382.88;;;4.22;100.00
58385;BME280;44185;47.844;8.966;2023-04-08T03:01:43;96379.44;;;4.22;100.00
58385;BME280;44185;47.844;8.966;2023-04-08T03:04:08;96374.78;;;4.27;100.00
58385;BME280;44185;47.844;8.966;2023-04-08T03:06:34;96375.41;;;4.31;100.00
58385;BME280;44185;47.844;8.966;2023-04-08T03:09:01;96384.69;;;4.37;100.00
58385;BME280;44185;47.844;8.966;2023-04-08T03:11:26;96384.41;;;4.41;100.00
58385;BME280;44185;47.844;8.966;2023-04-08T03:13:51;96380.72;;;4.45;100.00
58385;BME280;44185;47.844;8.966;2023-04-08T03:16:17;96384.53;;;4.40;100.00
58385;BME280;44185;47.844;8.966;2023-04-08T03:18:42;96377.50;;;4.40;100.00
58385;BME280;44185;47.844;8.966;2023-04-08T03:21:08;96374.50;;;4.47;100.00
58385;BME280;44185;47.844;8.966;2023-04-08T03:23:34;96377.59;;;4.39;100.00
58385;BME280;44185;47.844;8.966;2023-04-08T03:26:01;96375.06;;;4.37;100.00
58385;BME280;44185;47.844;8.966;2023-04-08T03:28:26;96381.22;;;4.36;100.00
58385;BME280;44185;47.844;8.966;2023-04-08T03:30:51;96382.19;;;4.35;100.00
58385;BME280;44185;47.844;8.966;2023-04-08T03:33:17;96381.59;;;4.30;100.00
58385;BME280;44185;47.844;8.966;2023-04-08T03:35:42;96375.06;;;4.37;100.00
58385;BME280;44185;47.844;8.966;2023-04-08T03:38:08;96381.22;;;4.36;100.00
58385;BME280;44185;47.844;8.966;2023-04-08T03:40:34;96376.00;;;4.36;100.00
58385;BME280;44185;47.844;8.966;2023-04-08T03:43:01;96385.91;;;4.31;100.00
58385;BME280;44185;47.844;8.966;2023-04-08T03:45:26;96379.16;;;4.27;100.00
58385;BME280;44185;47.844;8.966;2023-04-08T03:47:51;96384.22;;;4.30;100.00
58385;BME280;44185;47.844;8.966;2023-04-08T03:50:17;96382.19;;;4.35;100.00
58385;BME280;44185;47.844;8.966;2023-04-08T03:52:42;96382.09;;;4.37;100.00
58385;BME280;44185;47.844;8.966;2023-04-08T03:55:08;96383.78;;;4.38;100.00
58385;BME280;44185;47.844;8.966;2023-04-08T03:57:34;96395.53;;;4.30;100.00
58385;BME280;44185;47.844;8.966;2023-04-08T04:00:01;96386.66;;;4.33;100.00
58385;BME280;44185;47.844;8.966;2023-04-08T04:02:26;96384.84;;;4.19;100.00
58385;BME280;44185;47.844;8.966;2023-04-08T04:04:52;96394.78;;;4.28;100.00
58385;BME280;44185;47.844;8.966;2023-04-08T04:07:17;96384.88;;;4.33;100.00
58385;BME280;44185;47.844;8.966;2023-04-08T04:09:42;96384.81;;;4.35;100.00
58385;BME280;44185;47.844;8.966;2023-04-08T04:12:08;96379.56;;;4.35;100.00
58385;BME280;44185;47.844;8.966;2023-04-08T04:14:34;96388.16;;;4.37;100.00
58385;BME280;44185;47.844;8.966;2023-04-08T04:17:01;96381.59;;;4.30;100.00
58385;BME280;44185;47.844;8.966;2023-04-08T04:19:29;96386.00;;;4.29;100.00
58385;BME280;44185;47.844;8.966;2023-04-08T04:21:54;96388.91;;;4.25;100.00
58385;BME280;44185;47.844;8.966;2023-04-08T04:24:19;96387.09;;;4.25;100.00
58385;BME280;44185;47.844;8.966;2023-04-08T04:26:45;96391.69;;;4.21;100.00
58385;BME280;44185;47.844;8.966;2023-04-08T04:29:10;96393.34;;;4.22;100.00
58385;BME280;44185;47.844;8.966;2023-04-08T04:31:36;96394.88;;;4.27;100.00
58385;BME280;44185;47.844;8.966;2023-04-08T04:34:02;96394.88;;;4.27;100.00
58385;BME280;44185;47.844;8.966;2023-04-08T04:36:28;96394.31;;;4.21;100.00
58385;BME280;44185;47.844;8.966;2023-04-08T04:38:53;96398.88;;;4.18;100.00
58385;BME280;44185;47.844;8.966;2023-04-08T04:41:19;96396.41;;;4.15;100.00
58385;BME280;44185;47.844;8.966;2023-04-08T04:43:44;96394.91;;;4.10;100.00
58385;BME280;44185;47.844;8.966;2023-04-08T04:46:10;96397.44;;;4.12;100.00
58385;BME280;44185;47.844;8.966;2023-04-08T04:48:35;96400.63;;;4.17;100.00
58385;BME280;44185;47.844;8.966;2023-04-08T04:51:02;96396.94;;;4.21;100.00
58385;BME280;44185;47.844;8.966;2023-04-08T04:53:28;96404.78;;;4.21;100.00
58385;BME280;44185;47.844;8.966;2023-04-08T04:55:53;96397.84;;;4.20;100.00
58385;BME280;44185;47.844;8.966;2023-04-08T04:58:19;96411.88;;;4.19;100.00
58385;BME280;44185;47.844;8.966;2023-04-08T05:00:44;96411.53;;;4.26;100.00
58385;BME280;44185;47.844;8.966;2023-04-08T05:03:10;96414.13;;;4.26;100.00
58385;BME280;44185;47.844;8.966;2023-04-08T05:05:35;96405.44;;;4.25;100.00
58385;BME280;44185;47.844;8.966;2023-04-08T05:08:02;96416.88;;;4.24;100.00
58385;BME280;44185;47.844;8.966;2023-04-08T05:10:28;96412.78;;;4.34;100.00
58385;BME280;44185;47.844;8.966;2023-04-08T05:12:53;96413.69;;;4.33;100.00
58385;BME280;44185;47.844;8.966;2023-04-08T05:15:19;96414.06;;;4.27;100.00
58385;BME280;44185;47.844;8.966;2023-04-08T05:17:44;96415.09;;;4.25;100.00
58385;BME280;44185;47.844;8.966;2023-04-08T05:20:10;96417.50;;;4.28;100.00
58385;BME280;44185;47.844;8.966;2023-04-08T05:22:35;96417.50;;;4.28;100.00
58385;BME280;44185;47.844;8.966;2023-04-08T05:25:02;96422.75;;;4.28;100.00
58385;BME280;44185;47.844;8.966;2023-04-08T05:27:28;96423.53;;;4.30;100.00
58385;BME280;44185;47.844;8.966;2023-04-08T05:29:53;96424.44;;;4.29;100.00
58385;BME280;44185;47.844;8.966;2023-04-08T05:32:19;96427.91;;;4.29;100.00
58385;BME280;44185;47.844;8.966;2023-04-08T05:34:44;96430.38;;;4.32;100.00
58385;BME280;44185;47.844;8.966;2023-04-08T05:37:10;96430.75;;;4.41;100.00
58385;BME280;44185;47.844;8.966;2023-04-08T05:39:35;96430.75;;;4.41;100.00
58385;BME280;44185;47.844;8.966;2023-04-08T05:42:02;96430.84;;;4.39;100.00
58385;BME280;44185;47.844;8.966;2023-04-08T05:44:28;96435.16;;;4.40;100.00
58385;BME280;44185;47.844;8.966;2023-04-08T05:46:53;96434.13;;;4.43;100.00
58385;BME280;44185;47.844;8.966;2023-04-08T05:49:19;96435.75;;;4.45;100.00
58385;BME280;44185;47.844;8.966;2023-04-08T05:51:44;96435.47;;;4.50;100.00
58385;BME280;44185;47.844;8.966;2023-04-08T05:54:10;96432.75;;;4.52;100.00
58385;BME280;44185;47.844;8.966;2023-04-08T05:56:35;96442.78;;;4.60;100.00
58385;BME280;44185;47.844;8.966;2023-04-08T05:59:02;96434.91;;;4.60;100.00
58385;BME280;44185;47.844;8.966;2023-04-08T06:01:27;96437.34;;;4.63;100.00
58385;BME280;44185;47.844;8.966;2023-04-08T06:03:53;96436.16;;;4.69;100.00
58385;BME280;44185;47.844;8.966;2023-04-08T06:06:18;96434.78;;;4.77;100.00
58385;BME280;44185;47.844;8.966;2023-04-08T06:08:43;96432.44;;;4.87;100.00
58385;BME280;44185;47.844;8.966;2023-04-08T06:11:09;96443.84;;;4.86;100.00
58385;BME280;44185;47.844;8.966;2023-04-08T06:13:34;96436.00;;;4.86;100.00
58385;BME280;44185;47.844;8.966;2023-04-08T06:16:11;96440.78;;;4.94;100.00
58385;BME280;44185;47.844;8.966;2023-04-08T06:18:36;96450.25;;;4.97;100.00
58385;BME280;44185;47.844;8.966;2023-04-08T06:21:02;96451.75;;;5.01;100.00
58385;BME280;44185;47.844;8.966;2023-04-08T06:23:27;96453.53;;;5.00;100.00
58385;BME280;44185;47.844;8.966;2023-04-08T06:25:53;96456.91;;;5.03;100.00
58385;BME280;44185;47.844;8.966;2023-04-08T06:28:19;96449.50;;;4.95;100.00
58385;BME280;44185;47.844;8.966;2023-04-08T06:30:44;96451.75;;;5.01;100.00
58385;BME280;44185;47.844;8.966;2023-04-08T06:33:11;96451.59;;;5.04;100.00
58385;BME280;44185;47.844;8.966;2023-04-08T06:35:37;96452.50;;;5.03;100.00
58385;BME280;44185;47.844;8.966;2023-04-08T06:38:03;96462.63;;;5.09;100.00
58385;BME280;44185;47.844;8.966;2023-04-08T06:40:28;96460.59;;;5.15;100.00
58385;BME280;44185;47.844;8.966;2023-04-08T06:42:54;96463.84;;;5.18;100.00
58385;BME280;44185;47.844;8.966;2023-04-08T06:45:19;96464.59;;;5.20;100.00
58385;BME280;44185;47.844;8.966;2023-04-08T06:47:45;96471.44;;;5.23;100.00
58385;BME280;44185;47.844;8.966;2023-04-08T06:50:12;96465.81;;;5.29;100.00
58385;BME280;44185;47.844;8.966;2023-04-08T06:52:37;96466.66;;;5.30;100.00
58385;BME280;44185;47.844;8.966;2023-04-08T06:55:03;96468.06;;;5.36;100.00
58385;BME280;44185;47.844;8.966;2023-04-08T06:57:29;96470.53;;;5.39;100.00
58385;BME280;44185;47.844;8.966;2023-04-08T06:59:54;96464.03;;;5.44;100.00
58385;BME280;44185;47.844;8.966;2023-04-08T07:02:19;96468.53;;;5.57;100.00
58385;BME280;44185;47.844;8.966;2023-04-08T07:04:45;96470.13;;;5.60;100.00
58385;BME280;44185;47.844;8.966;2023-04-08T07:07:12;96467.69;;;5.56;100.00
58385;BME280;44185;47.844;8.966;2023-04-08T07:09:37;96464.47;;;5.66;100.00
58385;BME280;44185;47.844;8.966;2023-04-08T07:12:03;96467.47;;;5.74;100.00
58385;BME280;44185;47.844;8.966;2023-04-08T07:14:28;96463.44;;;5.83;100.00
58385;BME280;44185;47.844;8.966;2023-04-08T07:16:53;96466.13;;;5.96;100.00
58385;BME280;44185;47.844;8.966;2023-04-08T07:19:19;96467.06;;;6.10;100.00
58385;BME280;44185;47.844;8.966;2023-04-08T07:21:44;96472.44;;;6.21;100.00
58385;BME280;44185;47.844;8.966;2023-04-08T07:24:11;96469.94;;;6.20;100.00
58385;BME280;44185;47.844;8.966;2023-04-08T07:26:37;96467.78;;;6.12;100.00
58385;BME280;44185;47.844;8.966;2023-04-08T07:29:02;96476.47;;;6.27;100.00
58385;BME280;44185;47.844;8.966;2023-04-08T07:31:28;96475.97;;;6.35;100.00
58385;BME280;44185;47.844;8.966;2023-04-08T07:33:53;96472.44;;;6.49;100.00
58385;BME280;44185;47.844;8.966;2023-04-08T07:36:19;96480.69;;;6.71;100.00
58385;BME280;44185;47.844;8.966;2023-04-08T07:38:44;96474.81;;;6.80;100.00
58385;BME280;44185;47.844;8.966;2023-04-08T07:41:11;96468.00;;;6.90;100.00
58385;BME280;44185;47.844;8.966;2023-04-08T07:43:37;96468.00;;;6.90;100.00
58385;BME280;44185;47.844;8.966;2023-04-08T07:46:02;96470.53;;;7.18;100.00
58385;BME280;44185;47.844;8.966;2023-04-08T07:48:29;96480.00;;;7.34;100.00
58385;BME280;44185;47.844;8.966;2023-04-08T07:50:54;96480.63;;;7.11;100.00
58385;BME280;44185;47.844;8.966;2023-04-08T07:53:20;96479.91;;;7.36;100.00
58385;BME280;44185;47.844;8.966;2023-04-08T07:55:45;96476.44;;;7.35;100.00
58385;BME280;44185;47.844;8.966;2023-04-08T07:58:12;96486.00;;;7.36;100.00
58385;BME280;44185;47.844;8.966;2023-04-08T08:00:37;96480.75;;;7.36;100.00
58385;BME280;44185;47.844;8.966;2023-04-08T08:03:03;96483.81;;;7.43;100.00
58385;BME280;44185;47.844;8.966;2023-04-08T08:05:28;96493.50;;;7.42;100.00
58385;BME280;44185;47.844;8.966;2023-04-08T08:07:54;96486.66;;;7.40;100.00
58385;BME280;44185;47.844;8.966;2023-04-08T08:10:19;96489.38;;;7.38;100.00
58385;BME280;44185;47.844;8.966;2023-04-08T08:12:44;96490.41;;;7.36;100.00
58385;BME280;44185;47.844;8.966;2023-04-08T08:15:11;96496.53;;;7.36;100.00
58385;BME280;44185;47.844;8.966;2023-04-08T08:17:37;96487.25;;;7.43;100.00
58385;BME280;44185;47.844;8.966;2023-04-08T08:20:03;96492.31;;;7.47;100.00
58385;BME280;44185;47.844;8.966;2023-04-08T08:22:28;96496.75;;;7.46;100.00
58385;BME280;44185;47.844;8.966;2023-04-08T08:24:55;96500.75;;;7.52;100.00
58385;BME280;44185;47.844;8.966;2023-04-08T08:27:20;96500.41;;;7.56;100.00
58385;BME280;44185;47.844;8.966;2023-04-08T08:29:45;96503.69;;;7.60;100.00
58385;BME280;44185;47.844;8.966;2023-04-08T08:32:12;96508.56;;;7.53;100.00
58385;BME280;44185;47.844;8.966;2023-04-08T08:34:38;96513.81;;;7.53;100.00
58385;BME280;44185;47.844;8.966;2023-04-08T08:37:03;96511.47;;;7.62;100.00
58385;BME280;44185;47.844;8.966;2023-04-08T08:39:29;96511.91;;;7.68;100.00
58385;BME280;44185;47.844;8.966;2023-04-08T08:41:54;96510.84;;;7.71;100.00
58385;BME280;44185;47.844;8.966;2023-04-08T08:44:19;96518.75;;;7.71;99.54
58385;BME280;44185;47.844;8.966;2023-04-08T08:46:46;96518.00;;;7.82;100.00
58385;BME280;44185;47.844;8.966;2023-04-08T08:49:13;96526.44;;;7.74;97.90
58385;BME280;44185;47.844;8.966;2023-04-08T08:51:39;96523.69;;;7.76;97.51
58385;BME280;44185;47.844;8.966;2023-04-08T08:54:04;96524.53;;;7.76;96.51
58385;BME280;44185;47.844;8.966;2023-04-08T08:56:31;96524.41;;;7.78;97.47
58385;BME280;44185;47.844;8.966;2023-04-08T08:58:57;96523.91;;;7.73;96.67
58385;BME280;44185;47.844;8.966;2023-04-08T09:01:29;96530.31;;;7.82;98.63
58385;BME280;44185;47.844;8.966;2023-04-08T09:04:05;96533.91;;;7.81;98.09
58385;BME280;44185;47.844;8.966;2023-04-08T09:06:32;96533.91;;;7.81;96.02
58385;BME280;44185;47.844;8.966;2023-04-08T09:08:58;96532.66;;;7.73;97.32
58385;BME280;44185;47.844;8.966;2023-04-08T09:11:24;96536.97;;;7.74;98.80
58385;BME280;44185;47.844;8.966;2023-04-08T09:13:50;96534.66;;;7.70;96.91
58385;BME280;44185;47.844;8.966;2023-04-08T09:16:16;96541.78;;;7.81;95.55
58385;BME280;44185;47.844;8.966;2023-04-08T09:18:42;96536.44;;;7.82;91.68
58385;BME280;44185;47.844;8.966;2023-04-08T09:21:09;96543.63;;;7.80;93.00
58385;BME280;44185;47.844;8.966;2023-04-08T09:23:38;96539.16;;;7.81;94.29
58385;BME280;44185;47.844;8.966;2023-04-08T09:26:06;96543.28;;;7.85;92.65
58385;BME280;44185;47.844;8.966;2023-04-08T09:28:34;96530.19;;;7.96;93.80
58385;BME280;44185;47.844;8.966;2023-04-08T09:31:00;96539.78;;;7.97;92.57
58385;BME280;44185;47.844;8.966;2023-04-08T09:33:41;96533.88;;;8.07;92.23
58385;BME280;44185;47.844;8.966;2023-04-08T09:36:07;96544.16;;;8.10;92.32
58385;BME280;44185;47.844;8.966;2023-04-08T09:38:32;96533.41;;;8.13;91.82
58385;BME280;44185;47.844;8.966;2023-04-08T09:41:01;96539.66;;;8.12;91.94
58385;BME280;44185;47.844;8.966;2023-04-08T09:43:30;96534.91;;;8.17;90.33
58385;BME280;44185;47.844;8.966;2023-04-08T09:45:56;96530.75;;;8.26;90.64
58385;BME280;44185;47.844;8.966;2023-04-08T09:48:26;96542.97;;;8.27;92.30
58385;BME280;44185;47.844;8.966;2023-04-08T09:50:56;96537.53;;;8.17;88.50
58385;BME280;44185;47.844;8.966;2023-04-08T09:53:27;96545.53;;;8.16;90.47
58385;BME280;44185;47.844;8.966;2023-04-08T09:55:55;96544.94;;;8.12;89.61
58385;BME280;44185;47.844;8.966;2023-04-08T09:58:27;96542.50;;;8.09;89.14
58385;BME280;44185;47.844;8.966;2023-04-08T10:00:54;96543.97;;;8.13;90.00
58385;BME280;44185;47.844;8.966;2023-04-08T10:03:25;96543.53;;;8.19;89.32
58385;BME280;44185;47.844;8.966;2023-04-08T10:05:52;96547.91;;;8.32;90.27
58385;BME280;44185;47.844;8.966;2023-04-08T10:08:18;96545.16;;;8.33;86.75
58385;BME280;44185;47.844;8.966;2023-04-08T10:10:44;96542.34;;;8.23;86.30
58385;BME280;44185;47.844;8.966;2023-04-08T10:13:10;96552.91;;;8.23;87.64
58385;BME280;44185;47.844;8.966;2023-04-08T10:15:38;96544.22;;;8.34;87.53
58385;BME280;44185;47.844;8.966;2023-04-08T10:18:31;96541.53;;;8.48;85.69
58385;BME280;44185;47.844;8.966;2023-04-08T10:20:56;96541.41;;;8.62;83.62
58385;BME280;44185;47.844;8.966;2023-04-08T10:23:54;96548.28;;;8.76;85.04
58385;BME280;44185;47.844;8.966;2023-04-08T10:26:39;96534.31;;;8.87;85.06
58385;BME280;44185;47.844;8.966;2023-04-08T10:29:32;96535.38;;;8.85;83.75
58385;BME280;44185;47.844;8.966;2023-04-08T10:31:59;96538.06;;;8.96;85.46
58385;BME280;44185;47.844;8.966;2023-04-08T10:34:25;96535.84;;;9.15;85.60
58385;BME280;44185;47.844;8.966;2023-04-08T10:36:52;96540.41;;;9.12;83.30
58385;BME280;44185;47.844;8.966;2023-04-08T10:39:18;96538.09;;;9.08;82.08
58385;BME280;44185;47.844;8.966;2023-04-08T10:41:43;96539.41;;;9.14;82.76
58385;BME280;44185;47.844;8.966;2023-04-08T10:44:15;96541.38;;;9.34;83.60
58385;BME280;44185;47.844;8.966;2023-04-08T10:46:41;96534.81;;;9.52;83.09
58385;BME280;44185;47.844;8.966;2023-04-08T10:49:08;96538.31;;;9.64;82.93
58385;BME280;44185;47.844;8.966;2023-04-08T10:51:33;96543.38;;;9.78;78.90
58385;BME280;44185;47.844;8.966;2023-04-08T10:54:04;96541.09;;;9.85;79.92
58385;BME280;44185;47.844;8.966;2023-04-08T10:56:30;96533.72;;;10.12;78.49
58385;BME280;44185;47.844;8.966;2023-04-08T10:58:55;96524.31;;;10.42;77.90
58385;BME280;44185;47.844;8.966;2023-04-08T11:01:21;96529.19;;;10.70;74.69
58385;BME280;44185;47.844;8.966;2023-04-08T11:03:47;96527.72;;;10.77;74.83
58385;BME280;44185;47.844;8.966;2023-04-08T11:06:14;96529.59;;;10.87;76.46
58385;BME280;44185;47.844;8.966;2023-04-08T11:08:40;96524.06;;;10.90;75.81
58385;BME280;44185;47.844;8.966;2023-04-08T11:11:06;96529.94;;;10.49;72.52
58385;BME280;44185;47.844;8.966;2023-04-08T11:13:32;96518.78;;;10.34;75.82
58385;BME280;44185;47.844;8.966;2023-04-08T11:15:58;96524.72;;;10.71;76.80
58385;BME280;44185;47.844;8.966;2023-04-08T11:18:24;96521.63;;;10.98;75.84
58385;BME280;44185;47.844;8.966;2023-04-08T11:20:50;96512.63;;;10.89;74.20
58385;BME280;44185;47.844;8.966;2023-04-08T11:23:17;96520.91;;;10.63;69.31
58385;BME280;44185;47.844;8.966;2023-04-08T11:25:44;96518.66;;;10.35;69.45
58385;BME280;44185;47.844;8.966;2023-04-08T11:28:10;96518.34;;;10.29;70.92
58385;BME280;44185;47.844;8.966;2023-04-08T11:30:37;96516.53;;;10.18;73.82
58385;BME280;44185;47.844;8.966;2023-04-08T11:33:02;96510.31;;;10.19;74.22
58385;BME280;44185;47.844;8.966;2023-04-08T11:35:28;96514.41;;;9.88;74.92
58385;BME280;44185;47.844;8.966;2023-04-08T11:37:54;96520.66;;;9.76;75.73
58385;BME280;44185;47.844;8.966;2023-04-08T11:40:21;96519.81;;;9.75;76.94
58385;BME280;44185;47.844;8.966;2023-04-08T11:42:47;96514.19;;;9.57;77.18
58385;BME280;44185;47.844;8.966;2023-04-08T11:45:14;96516.94;;;9.78;76.87
58385;BME280;44185;47.844;8.966;2023-04-08T11:47:39;96503.13;;;9.63;76.49
58385;BME280;44185;47.844;8.966;2023-04-08T11:50:06;96504.44;;;9.57;77.59
58385;BME280;44185;47.844;8.966;2023-04-08T11:52:44;96505.06;;;9.84;75.70
58385;BME280;44185;47.844;8.966;2023-04-08T11:55:11;96507.09;;;9.92;76.84
58385;BME280;44185;47.844;8.966;2023-04-08T11:57:38;96506.97;;;9.71;76.15
58385;BME280;44185;47.844;8.966;2023-04-08T12:00:04;96514.78;;;9.84;76.18
58385;BME280;44185;47.844;8.966;2023-04-08T12:02:30;96509.13;;;9.88;74.38
58385;BME280;44185;47.844;8.966;2023-04-08T12:04:56;96499.25;;;10.02;76.91
58385;BME280;44185;47.844;8.966;2023-04-08T12:07:21;96499.72;;;10.07;74.68
58385;BME280;44185;47.844;8.966;2023-04-08T12:09:46;96507.06;;;10.04;70.92
58385;BME280;44185;47.844;8.966;2023-04-08T12:12:13;96502.41;;;9.84;70.50
58385;BME280;44185;47.844;8.966;2023-04-08T12:14:40;96509.00;;;9.78;72.38
58385;BME280;44185;47.844;8.966;2023-04-08T12:17:05;96505.41;;;9.79;72.51
58385;BME280;44185;47.844;8.966;2023-04-08T12:19:31;96510.47;;;9.71;75.03
58385;BME280;44185;47.844;8.966;2023-04-08T12:21:56;96512.97;;;9.50;76.86
58385;BME280;44185;47.844;8.966;2023-04-08T12:24:22;96515.84;;;9.47;79.34
58385;BME280;44185;47.844;8.966;2023-04-08T12:26:47;96514.97;;;9.34;78.15
58385;BME280;44185;47.844;8.966;2023-04-08T12:29:13;96517.38;;;9.26;77.80
58385;BME280;44185;47.844;8.966;2023-04-08T12:31:40;96515.56;;;9.27;77.29
58385;BME280;44185;47.844;8.966;2023-04-08T12:34:05;96514.97;;;9.23;77.80
58385;BME280;44185;47.844;8.966;2023-04-08T12:36:31;96519.50;;;9.09;77.46
58385;BME280;44185;47.844;8.966;2023-04-08T12:38:56;96518.66;;;9.09;78.58
58385;BME280;44185;47.844;8.966;2023-04-08T12:41:21;96518.44;;;9.12;79.71
58385;BME280;44185;47.844;8.966;2023-04-08T12:43:47;96515.28;;;9.07;80.06
58385;BME280;44185;47.844;8.966;2023-04-08T12:46:12;96515.03;;;8.98;80.76
58385;BME280;44185;47.844;8.966;2023-04-08T12:48:40;96516.59;;;9.01;81.41
58385;BME280;44185;47.844;8.966;2023-04-08T12:51:05;96514.44;;;9.06;82.19
58385;BME280;44185;47.844;8.966;2023-04-08T12:53:31;96518.53;;;9.10;81.69
58385;BME280;44185;47.844;8.966;2023-04-08T12:55:56;96519.47;;;8.98;82.36
58385;BME280;44185;47.844;8.966;2023-04-08T12:58:22;96516.09;;;8.96;80.81